Time;durP1;ratioP1;P1;durP2;ratioP2;P2;SDS_P1;SDS_P2;PMS_P1;PMS_P2;Temp;Humidity;BMP_temperature;BMP_pressure;BME280_temperature;BME280_humidity;BME280_pressure;Samples;Min_cycle;Max_cycle;Signal;HPM_P1;HPM_P2
2022/04/22 00:00:02;;;;;;;;;;;;;;;;;;5116188;28;20371;-68
2022/04/22 00:02:28;;;;;;;;;;;;;;;;;;5116678;28;19922;-68
2022/04/22 00:04:54;;;;;;;;;;;;;;;;;;5116498;28;20359;-68
2022/04/22 00:07:20;;;;;;;;;;;;;;;;;;5116376;28;19953;-68
2022/04/22 00:09:46;;;;;;;;;;;;;;;;;;5116369;28;20364;-68
2022/04/22 00:12:12;;;;;;;;;;;;;;;;;;5097532;28;19946;-67
2022/04/22 00:14:38;;;;;;;;;;;;;;;;;;5116215;28;19953;-67
2022/04/22 00:17:04;;;;;;;;;;;;;;;;;;5116614;28;19907;-67
2022/04/22 00:19:30;;;;;;;;;;;;;;;;;;5116175;28;19929;-67
2022/04/22 00:21:56;;;;;;;;;;;;;;;;;;5116044;28;20357;-67
2022/04/22 00:24:22;;;;;;;;;;;;;;;;;;5116254;28;19907;-68
2022/04/22 00:26:48;;;;;;;;;;;;;;;;;;5115744;28;20036;-68
2022/04/22 00:29:14;;;;;;;;;;;;;;;;;;5097617;28;20429;-68
2022/04/22 00:31:40;;;;;;;;;;;;;;;;;;5116346;28;20002;-68
2022/04/22 00:34:06;;;;;;;;;;;;;;;;;;5115465;28;19908;-67
2022/04/22 00:36:32;;;;;;;;;;;;;;;;;;5115742;28;20000;-67
2022/04/22 00:38:58;;;;;;;;;;;;;;;;;;5115722;28;20288;-68
2022/04/22 00:41:24;;;;;;;;;;;;;;;;;;5115409;28;19916;-68
2022/04/22 00:43:50;;;;;;;;;;;;;;;;;;5116115;28;20264;-67
2022/04/22 00:46:16;;;;;;;;;;;;;;;;;;5115527;28;19911;-68
2022/04/22 00:48:42;;;;;;;;;;;;;;;;;;5096861;28;19908;-68
2022/04/22 00:51:08;;;;;;;;;;;;;;;;;;5115458;28;19908;-68
2022/04/22 00:53:34;;;;;;;;;;;;;;;;;;5115408;28;19931;-67
2022/04/22 00:56:00;;;;;;;;;;;;;;;;;;5114925;28;19908;-67
2022/04/22 00:58:27;;;;;;;;;;;;;;;;;;5115355;28;19908;-67
2022/04/22 01:00:53;;;;;;;;;;;;;;;;;;5114997;28;20287;-67
2022/04/22 01:03:19;;;;;;;;;;;;;;;;;;5114810;28;19946;-68
2022/04/22 01:11:14;;;;;;;;;;;;;;;;;;5115215;28;19914;-68
2022/04/22 01:13:40;;;;;;;;;;;;;;;;;;5115685;28;19907;-68
2022/04/22 01:16:06;;;;;;;;;;;;;;;;;;5114627;28;19969;-68
2022/04/22 01:18:32;;;;;;;;;;;;;;;;;;5115033;28;19908;-68
2022/04/22 01:20:58;;;;;;;;;;;;;;;;;;5096619;28;19916;-67
2022/04/22 01:23:24;;;;;;;;;;;;;;;;;;5096223;28;19943;-69
2022/04/22 01:25:52;;;;;;;;;;;;;;;;;;5114824;28;19919;-68
2022/04/22 01:28:18;;;;;;;;;;;;;;;;;;5114810;28;19914;-68
2022/04/22 01:30:44;;;;;;;;;;;;;;;;;;5114087;28;20279;-68
2022/04/22 01:33:10;;;;;;;;;;;;;;;;;;5114777;28;19914;-67
2022/04/22 01:35:36;;;;;;;;;;;;;;;;;;5114695;28;20267;-68
2022/04/22 01:38:02;;;;;;;;;;;;;;;;;;5096030;28;19908;-67
2022/04/22 01:40:29;;;;;;;;;;;;;;;;;;5114578;28;19907;-68
2022/04/22 01:42:55;;;;;;;;;;;;;;;;;;5114723;28;20371;-68
2022/04/22 01:45:21;;;;;;;;;;;;;;;;;;5114251;28;19911;-67
2022/04/22 01:47:47;;;;;;;;;;;;;;;;;;5114546;28;19915;-68
2022/04/22 01:50:13;;;;;;;;;;;;;;;;;;5114633;28;20329;-67
2022/04/22 01:52:41;;;;;;;;;;;;;;;;;;5114144;28;19908;-68
2022/04/22 01:55:07;;;;;;;;;;;;;;;;;;5114408;28;20060;-67
2022/04/22 01:57:33;;;;;;;;;;;;;;;;;;5113977;28;20371;-67
2022/04/22 02:00:01;;;;;;;;;;;;;;;;;;5114525;28;19914;-67
2022/04/22 02:02:27;;;;;;;;;;;;;;;;;;5114304;28;20016;-68
2022/04/22 02:04:53;;;;;;;;;;;;;;;;;;5113952;28;19908;-68
2022/04/22 02:07:19;;;;;;;;;;;;;;;;;;5114545;28;20043;-68
2022/04/22 02:09:45;;;;;;;;;;;;;;;;;;5114457;28;19911;-68
2022/04/22 02:12:12;;;;;;;;;;;;;;;;;;5113900;28;20002;-68
2022/04/22 02:14:38;;;;;;;;;;;;;;;;;;5114612;28;20344;-68
2022/04/22 02:17:04;;;;;;;;;;;;;;;;;;5114767;28;19908;-67
2022/04/22 02:19:30;;;;;;;;;;;;;;;;;;5113951;28;19943;-67
2022/04/22 02:21:56;;;;;;;;;;;;;;;;;;5114087;28;19966;-68
2022/04/22 02:24:22;;;;;;;;;;;;;;;;;;5095903;28;20364;-67
2022/04/22 02:29:33;;;;;;;;;;;;;;;;;;5114088;28;19915;-66
2022/04/22 02:31:59;;;;;;;;;;;;;;;;;;5114105;28;20279;-68
2022/04/22 02:34:25;;;;;;;;;;;;;;;;;;5113673;28;19919;-68
2022/04/22 02:36:51;;;;;;;;;;;;;;;;;;5114040;28;19907;-68
2022/04/22 02:39:17;;;;;;;;;;;;;;;;;;5114280;28;20386;-67
2022/04/22 02:47:13;;;;;;;;;;;;;;;;;;5117729;28;20002;-68
2022/04/22 02:49:43;;;;;;;;;;;;;;;;;;5118317;28;20008;-68
2022/04/22 02:52:09;;;;;;;;;;;;;;;;;;5117815;28;19915;-67
2022/04/22 02:54:35;;;;;;;;;;;;;;;;;;5117529;28;19911;-67
2022/04/22 02:57:01;;;;;;;;;;;;;;;;;;5117751;28;20371;-68
2022/04/22 02:59:27;;;;;;;;;;;;;;;;;;5118069;28;19915;-68
2022/04/22 03:01:53;;;;;;;;;;;;;;;;;;5116982;28;19920;-68
2022/04/22 03:04:19;;;;;;;;;;;;;;;;;;5117596;28;19915;-68
2022/04/22 03:06:45;;;;;;;;;;;;;;;;;;5117417;28;19911;-68
2022/04/22 03:09:11;;;;;;;;;;;;;;;;;;5117268;28;19913;-68
2022/04/22 03:11:37;;;;;;;;;;;;;;;;;;5117437;28;19931;-68
2022/04/22 03:14:05;;;;;;;;;;;;;;;;;;5117401;28;19994;-68
2022/04/22 03:16:31;;;;;;;;;;;;;;;;;;5117021;28;19907;-68
2022/04/22 03:18:57;;;;;;;;;;;;;;;;;;5117267;28;19907;-68
2022/04/22 03:21:23;;;;;;;;;;;;;;;;;;5117161;28;20026;-68
2022/04/22 03:23:49;;;;;;;;;;;;;;;;;;5098536;28;19908;-68
2022/04/22 03:26:15;;;;;;;;;;;;;;;;;;5117219;28;19919;-68
2022/04/22 03:28:41;;;;;;;;;;;;;;;;;;5117169;28;19907;-68
2022/04/22 03:31:07;;;;;;;;;;;;;;;;;;5116612;28;20394;-68
2022/04/22 03:33:33;;;;;;;;;;;;;;;;;;5098782;28;19947;-67
2022/04/22 03:35:59;;;;;;;;;;;;;;;;;;5116842;28;19998;-68
2022/04/22 03:38:27;;;;;;;;;;;;;;;;;;5116996;28;19911;-68
2022/04/22 03:40:53;;;;;;;;;;;;;;;;;;5116894;28;19912;-68
2022/04/22 03:43:19;;;;;;;;;;;;;;;;;;5116456;28;19919;-68
2022/04/22 03:45:45;;;;;;;;;;;;;;;;;;5116813;28;19912;-68
2022/04/22 03:48:11;;;;;;;;;;;;;;;;;;5116746;28;20291;-68
2022/04/22 03:50:37;;;;;;;;;;;;;;;;;;5116319;28;19920;-68
2022/04/22 03:53:03;;;;;;;;;;;;;;;;;;5116709;28;19915;-67
2022/04/22 03:55:29;;;;;;;;;;;;;;;;;;5116289;28;19907;-67
2022/04/22 03:58:10;;;;;;;;;;;;;;;;;;5116328;28;20291;-67
2022/04/22 04:00:39;;;;;;;;;;;;;;;;;;5097970;28;19994;-67
2022/04/22 04:03:05;;;;;;;;;;;;;;;;;;5116432;28;19911;-68
2022/04/22 04:05:32;;;;;;;;;;;;;;;;;;5116240;28;20390;-67
2022/04/22 04:07:58;;;;;;;;;;;;;;;;;;5116398;28;19961;-67
2022/04/22 04:15:59;;;;;;;;;;;;;;;;;;5116279;28;19915;-68
2022/04/22 04:18:26;;;;;;;;;;;;;;;;;;5115882;28;19918;-67
2022/04/22 04:23:37;;;;;;;;;;;;;;;;;;5116125;28;20007;-68
2022/04/22 04:26:03;;;;;;;;;;;;;;;;;;5115602;28;20272;-68
2022/04/22 04:28:29;;;;;;;;;;;;;;;;;;5115953;28;19908;-68
2022/04/22 04:30:55;;;;;;;;;;;;;;;;;;5115910;28;20002;-68
2022/04/22 04:33:21;;;;;;;;;;;;;;;;;;5097155;28;20014;-68
2022/04/22 04:35:47;;;;;;;;;;;;;;;;;;5116045;28;19908;-67
2022/04/22 04:38:13;;;;;;;;;;;;;;;;;;5115802;28;19914;-67
2022/04/22 04:40:39;;;;;;;;;;;;;;;;;;5115269;28;19907;-68
2022/04/22 04:43:08;;;;;;;;;;;;;;;;;;5115692;28;20375;-68
2022/04/22 04:45:34;;;;;;;;;;;;;;;;;;5097281;28;20332;-68
2022/04/22 04:48:00;;;;;;;;;;;;;;;;;;5115291;28;19908;-68
2022/04/22 04:50:26;;;;;;;;;;;;;;;;;;5115606;28;19914;-67
2022/04/22 04:52:52;;;;;;;;;;;;;;;;;;5115775;28;20356;-68
2022/04/22 04:55:18;;;;;;;;;;;;;;;;;;5096738;28;19908;-67
2022/04/22 04:57:44;;;;;;;;;;;;;;;;;;5115333;28;19915;-67
2022/04/22 05:00:10;;;;;;;;;;;;;;;;;;5114838;28;19920;-67
2022/04/22 05:02:36;;;;;;;;;;;;;;;;;;5115188;28;19920;-67
2022/04/22 05:05:02;;;;;;;;;;;;;;;;;;5115421;28;19918;-67
2022/04/22 05:07:28;;;;;;;;;;;;;;;;;;5114257;28;19915;-67
2022/04/22 05:09:54;;;;;;;;;;;;;;;;;;5115215;28;19915;-67
2022/04/22 05:12:20;;;;;;;;;;;;;;;;;;5115444;28;19915;-67
2022/04/22 05:14:46;;;;;;;;;;;;;;;;;;5096419;28;20014;-67
2022/04/22 05:17:12;;;;;;;;;;;;;;;;;;5115039;28;19908;-67
2022/04/22 05:19:38;;;;;;;;;;;;;;;;;;5115075;28;19939;-67
2022/04/22 05:22:04;;;;;;;;;;;;;;;;;;5096264;28;20037;-67
2022/04/22 05:24:31;;;;;;;;;;;;;;;;;;5114870;28;20444;-67
2022/04/22 05:26:57;;;;;;;;;;;;;;;;;;5096625;28;19994;-68
2022/04/22 05:34:52;;;;;;;;;;;;;;;;;;5114794;28;19942;-68
2022/04/22 05:37:18;;;;;;;;;;;;;;;;;;5114276;28;19953;-68
2022/04/22 05:39:44;;;;;;;;;;;;;;;;;;5096412;28;19908;-68
2022/04/22 05:42:10;;;;;;;;;;;;;;;;;;5114565;28;19939;-68
2022/04/22 05:44:36;;;;;;;;;;;;;;;;;;5114157;28;19915;-68
2022/04/22 05:47:02;;;;;;;;;;;;;;;;;;5114551;28;19937;-68
2022/04/22 05:49:28;;;;;;;;;;;;;;;;;;5114148;28;19953;-67
2022/04/22 05:51:54;;;;;;;;;;;;;;;;;;5114511;28;19914;-67
2022/04/22 05:54:20;;;;;;;;;;;;;;;;;;5114466;28;19908;-68
2022/04/22 05:56:47;;;;;;;;;;;;;;;;;;5114134;28;20284;-68
2022/04/22 05:59:13;;;;;;;;;;;;;;;;;;5114913;28;20244;-68
2022/04/22 06:01:39;;;;;;;;;;;;;;;;;;5114148;28;20387;-68
2022/04/22 06:04:05;;;;;;;;;;;;;;;;;;5113882;28;19950;-68
2022/04/22 06:06:31;;;;;;;;;;;;;;;;;;5096060;28;19907;-68
2022/04/22 06:12:02;;;;;;;;;;;;;;;;;;5031326;28;20007;-68
2022/04/22 06:14:28;;;;;;;;;;;;;;;;;;5031702;28;19909;-68
2022/04/22 06:16:54;;;;;;;;;;;;;;;;;;5070971;28;20015;-68
2022/04/22 06:19:20;;;;;;;;;;;;;;;;;;5118018;28;19907;-68
2022/04/22 06:21:47;;;;;;;;;;;;;;;;;;5118670;28;19916;-68
2022/04/22 06:24:13;;;;;;;;;;;;;;;;;;5118206;28;19960;-68
2022/04/22 06:26:39;;;;;;;;;;;;;;;;;;5099673;28;20279;-68
2022/04/22 06:29:05;;;;;;;;;;;;;;;;;;5118327;28;20380;-68
2022/04/22 06:31:31;;;;;;;;;;;;;;;;;;5118158;28;19929;-68
2022/04/22 06:33:57;;;;;;;;;;;;;;;;;;5117754;28;19907;-68
2022/04/22 06:36:23;;;;;;;;;;;;;;;;;;5118535;28;19915;-68
2022/04/22 06:38:49;;;;;;;;;;;;;;;;;;5117673;28;19968;-68
2022/04/22 06:46:47;;;;;;;;;;;;;;;;;;5117617;28;19931;-68
2022/04/22 06:49:13;;;;;;;;;;;;;;;;;;5118124;28;19915;-68
2022/04/22 06:51:39;;;;;;;;;;;;;;;;;;5117921;28;19984;-68
2022/04/22 06:54:05;;;;;;;;;;;;;;;;;;5117409;28;19957;-67
2022/04/22 06:56:31;;;;;;;;;;;;;;;;;;5117776;28;20276;-68
2022/04/22 06:58:57;;;;;;;;;;;;;;;;;;5117700;28;19958;-68
2022/04/22 07:01:24;;;;;;;;;;;;;;;;;;5117146;28;20376;-68
2022/04/22 07:03:50;;;;;;;;;;;;;;;;;;5117708;28;19991;-68
2022/04/22 07:06:16;;;;;;;;;;;;;;;;;;5117739;28;19939;-68
2022/04/22 07:08:45;;;;;;;;;;;;;;;;;;5117081;28;19908;-68
2022/04/22 07:11:11;;;;;;;;;;;;;;;;;;5117436;28;19953;-69
2022/04/22 07:13:49;;;;;;;;;;;;;;;;;;5103184;27;19913;-67
2022/04/22 07:16:16;;;;;;;;;;;;;;;;;;5071184;28;19912;-67
2022/04/22 07:23:18;;;;;;;;;;;;;;;;;;5104291;27;19913;-67
2022/04/22 07:25:46;;;;;;;;;;;;;;;;;;5071099;28;19917;-67
2022/04/22 07:28:55;;;;;;;;;;;;;;;;;;5103466;27;19919;-69
2022/04/22 07:31:21;;;;;;;;;;;;;;;;;;5071196;28;20404;-68
2022/04/22 07:33:49;;;;;;;;;;;;;;;;;;5071108;28;19917;-68
2022/04/22 07:37:38;;;;;;;;;;;;;;;;;;5134684;27;19959;-67
2022/04/22 07:40:04;;;;;;;;;;;;;;;;;;5134370;27;19960;-68
2022/04/22 07:42:30;;;;;;;;;;;;;;;;;;5152720;27;19908;-67
2022/04/22 07:47:42;;;;;;;;;;;;;;;;;;5152844;27;19914;-68
2022/04/22 07:50:08;;;;;;;;;;;;;;;;;;5152340;27;19911;-68
2022/04/22 07:52:34;;;;;;;;;;;;;;;;;;5152676;27;20014;-68
2022/04/22 07:55:00;;;;;;;;;;;;;;;;;;5152475;27;19911;-68
2022/04/22 08:02:06;;;;;;;;;;;;;;;;;;5107005;27;19912;-67
2022/04/22 08:04:32;;;;;;;;;;;;;;;;;;5090990;28;19912;-67
2022/04/22 08:06:58;;;;;;;;;;;;;;;;;;5091293;28;19970;-67
2022/04/22 08:09:24;;;;;;;;;;;;;;;;;;5090027;28;19909;-67
2022/04/22 08:13:41;;;;;;;;;;;;;;;;;;5103723;27;19948;-67
2022/04/22 08:16:07;;;;;;;;;;;;;;;;;;5071086;28;20373;-67
2022/04/22 08:18:33;;;;;;;;;;;;;;;;;;5070642;28;19915;-67
2022/04/22 08:22:00;;;;;;;;;;;;;;;;;;5104275;27;19919;-67
2022/04/22 08:25:48;;;;;;;;;;;;;;;;;;5103517;27;19944;-67
2022/04/22 08:30:45;;;;;;;;;;;;;;;;;;5107380;27;19952;-67
2022/04/22 08:33:12;;;;;;;;;;;;;;;;;;5090897;28;19973;-68
2022/04/22 08:38:25;;;;;;;;;;;;;;;;;;5103856;27;20339;-67
2022/04/22 08:42:41;;;;;;;;;;;;;;;;;;5104479;27;19913;-69
2022/04/22 08:45:07;;;;;;;;;;;;;;;;;;5071208;28;19912;-69
2022/04/22 08:50:19;;;;;;;;;;;;;;;;;;5071073;28;19915;-67
2022/04/22 08:53:38;;;;;;;;;;;;;;;;;;5103366;27;19952;-68
2022/04/22 08:59:27;;;;;;;;;;;;;;;;;;5106321;27;19916;-67
2022/04/22 09:04:02;;;;;;;;;;;;;;;;;;5103935;27;19948;-67
2022/04/22 09:08:38;;;;;;;;;;;;;;;;;;5107412;27;20426;-67
2022/04/22 09:12:46;;;;;;;;;;;;;;;;;;5104171;27;19920;-68
2022/04/22 09:16:41;;;;;;;;;;;;;;;;;;5107303;27;20385;-67
2022/04/22 09:19:07;;;;;;;;;;;;;;;;;;5091404;28;19966;-68
2022/04/22 09:21:33;;;;;;;;;;;;;;;;;;5090654;28;19909;-68
2022/04/22 09:23:59;;;;;;;;;;;;;;;;;;5091682;28;19915;-67
2022/04/22 09:26:25;;;;;;;;;;;;;;;;;;5091158;28;20311;-68
2022/04/22 09:28:52;;;;;;;;;;;;;;;;;;5089538;28;19969;-68
2022/04/22 09:31:17;;;;;;;;;;;;;;;;;;5091209;28;19962;-67
2022/04/22 09:33:44;;;;;;;;;;;;;;;;;;5090845;28;19912;-67
2022/04/22 09:44:00;;;;;;;;;;;;;;;;;;5103748;27;20057;-68
2022/04/22 09:49:46;;;;;;;;;;;;;;;;;;5123785;27;19947;-67
2022/04/22 09:53:51;;;;;;;;;;;;;;;;;;5104221;27;19913;-67
2022/04/22 09:59:33;;;;;;;;;;;;;;;;;;5104576;27;19959;-67
2022/04/22 10:03:50;;;;;;;;;;;;;;;;;;5103370;27;20385;-68
2022/04/22 10:06:56;;;;;;;;;;;;;;;;;;5103731;27;19919;-67
2022/04/22 10:11:54;;;;;;;;;;;;;;;;;;5103402;27;19978;-69
2022/04/22 10:14:21;;;;;;;;;;;;;;;;;;5071146;28;19936;-68
2022/04/22 10:17:27;;;;;;;;;;;;;;;;;;5127399;27;19944;-68
2022/04/22 10:21:11;;;;;;;;;;;;;;;;;;5144776;27;20004;-68
2022/04/22 10:23:37;;;;;;;;;;;;;;;;;;5111501;28;19919;-68
2022/04/22 10:27:31;;;;;;;;;;;;;;;;;;5103971;27;19919;-68
2022/04/22 10:29:59;;;;;;;;;;;;;;;;;;5071033;28;19974;-67
2022/04/22 10:32:25;;;;;;;;;;;;;;;;;;5070589;28;20258;-69
2022/04/22 10:36:33;;;;;;;;;;;;;;;;;;5107024;27;19939;-68
2022/04/22 10:42:18;;;;;;;;;;;;;;;;;;5104168;27;20335;-68
2022/04/22 10:47:30;;;;;;;;;;;;;;;;;;5069843;28;19909;-68
2022/04/22 10:49:56;;;;;;;;;;;;;;;;;;5069645;28;19946;-68
2022/04/22 10:52:22;;;;;;;;;;;;;;;;;;5070567;28;19916;-68
2022/04/22 11:00:09;;;;;;;;;;;;;;;;;;5102902;27;19913;-68
2022/04/22 11:02:35;;;;;;;;;;;;;;;;;;5071021;28;20075;-67
2022/04/22 11:05:01;;;;;;;;;;;;;;;;;;5071095;28;19909;-67
2022/04/22 11:07:28;;;;;;;;;;;;;;;;;;5070456;28;20478;-68
2022/04/22 11:10:20;;;;;;;;;;;;;;;;;;5103831;27;20337;-68
2022/04/22 11:12:46;;;;;;;;;;;;;;;;;;5071005;28;19966;-67
2022/04/22 11:15:12;;;;;;;;;;;;;;;;;;5070534;28;19908;-68
2022/04/22 11:19:59;;;;;;;;;;;;;;;;;;5106878;27;20449;-67
2022/04/22 11:22:58;;;;;;;4.82;2.70;;;;;;;;;;5127071;27;20384;-68
2022/04/22 11:25:29;;;;;;;6.78;2.90;;;;;;;;;;5111292;28;20024;-67
2022/04/22 11:28:19;;;;;;;11.88;3.17;;;;;;;;;;5126827;27;20381;-68
2022/04/22 11:31:14;;;;;;;6.05;2.20;;;;;;;;;;5127138;27;20427;-68
2022/04/22 11:34:05;;;;;;;5.35;2.47;;;;;;;;;;5111190;28;20024;-68
2022/04/22 11:36:42;;;;;;;4.72;2.55;;;;;;;;;;5111436;28;20061;-67
2022/04/22 11:40:44;;;;;;;5.88;2.35;;;;;;;;;;5151107;27;20153;-69
2022/04/22 11:43:20;;;;;;;4.82;2.50;;;;;;;;;;5131299;27;20057;-68
2022/04/22 11:45:47;;;;;;;12.20;2.90;;;;;;;;;;5131843;27;20043;-68
2022/04/22 11:48:15;;;;;;;6.65;2.28;;;;;;;;;;5129852;28;20076;-68
2022/04/22 11:50:42;;;;;;;6.35;3.28;;;;;;;;;;5131539;28;20099;-68
2022/04/22 11:56:04;;;;;;;9.68;3.20;;;;;;;;;;5144201;27;20442;-67
2022/04/22 11:58:33;;;;;;;7.35;2.92;;;;;;;;;;5111186;28;20383;-68
2022/04/22 12:06:49;;;;;;;5.60;2.30;;;;;;;;;;5127484;27;20377;-68
2022/04/22 12:09:16;;;;;;;8.73;2.25;;;;;;;;;;5110682;28;20027;-67
2022/04/22 12:12:51;;;;;;;7.40;2.42;;;;;;;;;;5126780;27;20418;-68
2022/04/22 12:15:21;;;;;;;6.43;2.78;;;;;;;;;;5111021;28;20020;-68
2022/04/22 12:17:47;;;;;;;8.35;2.60;;;;;;;;;;5110621;28;20099;-68
2022/04/22 12:20:15;;;;;;;7.75;3.78;;;;;;;;;;5111027;28;20038;-68
2022/04/22 12:22:41;;;;;;;5.20;2.75;;;;;;;;;;5110971;28;20418;-68
2022/04/22 12:25:07;;;;;;;6.35;3.22;;;;;;;;;;5110467;28;20020;-68
2022/04/22 12:28:11;;;;;;;6.45;2.60;;;;;;;;;;5127501;27;20427;-68
2022/04/22 12:30:38;;;;;;;6.45;3.60;;;;;;;;;;5110935;28;20030;-68
2022/04/22 12:33:05;;;;;;;5.78;2.38;;;;;;;;;;5111007;28;20016;-68
2022/04/22 12:35:31;;;;;;;5.22;2.28;;;;;;;;;;5109813;28;20031;-68
2022/04/22 12:37:58;;;;;;;5.00;2.72;;;;;;;;;;5110756;28;20030;-68
2022/04/22 12:40:26;;;;;;;4.28;2.92;;;;;;;;;;5109754;28;20024;-68
2022/04/22 12:42:53;;;;;;;5.43;2.70;;;;;;;;;;5110762;28;20023;-68
2022/04/22 12:52:14;;;;;;;5.82;3.17;;;;;;;;;;5127248;27;20382;-68
2022/04/22 12:54:42;;;;;;;7.80;2.15;;;;;;;;;;5111278;28;20495;-67
2022/04/22 12:57:11;;;;;;;7.32;2.90;;;;;;;;;;5111136;28;20027;-68
2022/04/22 12:59:44;;;;;;;4.40;2.63;;;;;;;;;;5110749;28;20020;-68
2022/04/22 13:02:10;;;;;;;;;;;;;;;;;;5110989;28;20016;-68
2022/04/22 13:04:49;;;;;;;5.45;2.28;;;;;;;;;;5111195;28;19908;-68
2022/04/22 13:07:16;;;;;;;6.43;2.58;;;;;;;;;;5110584;28;20024;-69
2022/04/22 13:09:42;;;;;;;9.73;3.55;;;;;;;;;;5111143;28;20077;-67
2022/04/22 13:12:08;;;;;;;7.53;2.70;;;;;;;;;;5109604;28;20028;-67
2022/04/22 13:14:34;;;;;;;7.38;3.00;;;;;;;;;;5110432;28;20031;-67
2022/04/22 13:17:01;;;;;;;6.63;2.75;;;;;;;;;;5110706;28;20024;-67
2022/04/22 13:19:28;;;;;;;6.57;2.97;;;;;;;;;;5110192;28;20019;-68
2022/04/22 13:21:54;;;;;;;9.63;3.13;;;;;;;;;;5110737;28;20333;-68
2022/04/22 13:24:20;;;;;;;8.07;2.20;;;;;;;;;;5110938;28;20016;-68
2022/04/22 13:26:47;;;;;;;3.97;2.20;;;;;;;;;;5110135;28;20077;-67
2022/04/22 13:29:13;;;;;;;7.47;3.08;;;;;;;;;;5110541;28;20138;-68
2022/04/22 13:31:39;;;;;;;6.13;2.90;;;;;;;;;;5110306;28;20119;-69
2022/04/22 13:36:17;;;;;;;4.63;2.25;;;;;;;;;;5127745;27;20430;-68
2022/04/22 13:38:48;;;;;;;7.97;3.38;;;;;;;;;;5109777;28;20414;-68
2022/04/22 13:41:15;;;;;;;5.80;2.33;;;;;;;;;;5110868;28;20028;-68
2022/04/22 13:43:43;;;;;;;7.93;3.60;;;;;;;;;;5109741;28;20020;-68
2022/04/22 13:54:23;;;;;;;6.97;2.90;;;;;;;;;;5110921;28;20170;-68
2022/04/22 13:56:50;;;;;;;6.38;2.75;;;;;;;;;;5110609;28;20031;-68
2022/04/22 14:00:38;;;;;;;5.57;3.25;;;;;;;;;;5127574;27;20369;-68
2022/04/22 14:03:04;;;;;;;9.32;3.40;;;;;;;;;;5109439;28;20024;-68
2022/04/22 14:05:31;;;;;;;10.27;3.05;;;;;;;;;;5111082;28;20028;-69
2022/04/22 14:07:57;;;;;;;6.18;3.13;;;;;;;;;;5111135;28;20069;-68
2022/04/22 14:10:23;;;;;;;4.22;2.33;;;;;;;;;;5110574;28;20020;-68
2022/04/22 14:12:49;;;;;;;6.18;2.70;;;;;;;;;;5110625;28;20053;-68
2022/04/22 14:15:16;;;;;;;6.35;2.60;;;;;;;;;;5110454;28;20016;-69
2022/04/22 14:17:43;;;;;;;7.18;2.60;;;;;;;;;;5110343;28;20034;-68
2022/04/22 14:20:10;;;;;;;9.75;2.40;;;;;;;;;;5110942;28;20484;-69
2022/04/22 14:22:38;;;;;;;9.27;3.75;;;;;;;;;;5110738;28;20068;-68
2022/04/22 14:25:05;;;;;;;6.10;3.03;;;;;;;;;;5110302;28;20101;-69
2022/04/22 14:27:31;;;;;;;4.85;2.70;;;;;;;;;;5110992;28;20073;-68
2022/04/22 14:29:58;;;;;;;6.65;3.05;;;;;;;;;;5110372;28;20024;-70
2022/04/22 14:32:24;;;;;;;8.30;3.22;;;;;;;;;;5110599;28;20027;-69
2022/04/22 14:34:50;;;;;;;10.70;3.58;;;;;;;;;;5110490;28;20095;-69
2022/04/22 14:37:17;;;;;;;9.32;3.72;;;;;;;;;;5110088;28;20032;-69
2022/04/22 14:39:43;;;;;;;7.28;3.20;;;;;;;;;;5110316;28;20036;-69
2022/04/22 14:42:09;;;;;;;7.10;3.20;;;;;;;;;;5110125;28;20471;-69
2022/04/22 14:44:36;;;;;;;8.05;3.50;;;;;;;;;;5109954;28;20358;-69
2022/04/22 14:47:02;;;;;;;8.02;2.97;;;;;;;;;;5110359;28;20028;-68
2022/04/22 14:49:28;;;;;;;9.45;3.28;;;;;;;;;;5110450;28;20035;-68
2022/04/22 14:51:58;;;;;;;7.32;3.17;;;;;;;;;;5109730;28;20023;-68
2022/04/22 14:54:24;;;;;;;6.20;3.15;;;;;;;;;;5110181;28;20019;-67
2022/04/22 14:56:51;;;;;;;8.02;3.03;;;;;;;;;;5110184;28;20019;-67
2022/04/22 14:59:19;;;;;;;6.47;3.25;;;;;;;;;;5109483;28;20044;-68
2022/04/22 15:01:45;;;;;;;8.35;3.40;;;;;;;;;;5110477;28;20482;-68
2022/04/22 15:04:11;;;;;;;7.90;3.50;;;;;;;;;;5110289;28;20057;-68
2022/04/22 15:06:38;;;;;;;5.53;3.20;;;;;;;;;;5109478;28;20085;-68
2022/04/22 15:09:35;;;;;;;8.02;3.53;;;;;;;;;;5127886;27;20434;-69
2022/04/22 15:12:01;;;;;;;7.43;3.35;;;;;;;;;;5111320;28;20433;-70
2022/04/22 15:16:38;;;;;;;7.72;3.10;;;;;;;;;;5134448;27;20111;-69
2022/04/22 15:24:34;;;;;;;5.97;3.15;;;;;;;;;;5131659;28;20415;-68
2022/04/22 15:28:01;;;;;;;7.85;3.47;;;;;;;;;;5126881;27;20381;-68
2022/04/22 15:30:47;;;;;;;7.18;3.70;;;;;;;;;;5111234;28;20024;-70
2022/04/22 15:33:13;;;;;;;8.60;4.05;;;;;;;;;;5111169;28;20379;-70
2022/04/22 15:35:39;;;;;;;9.68;4.03;;;;;;;;;;5110675;28;20023;-70
2022/04/22 15:38:05;;;;;;;6.78;3.28;;;;;;;;;;5111158;28;20069;-69
2022/04/22 15:40:31;;;;;;;6.97;3.15;;;;;;;;;;5110530;28;20056;-69
2022/04/22 15:43:51;;;;;;;5.55;2.92;;;;;;;;;;5130703;27;20104;-68
2022/04/22 15:46:17;;;;;;;8.32;3.45;;;;;;;;;;5131695;28;20027;-68
2022/04/22 15:48:44;;;;;;;4.70;2.92;;;;;;;;;;5131184;28;20544;-68
2022/04/22 15:51:11;;;;;;;6.63;3.60;;;;;;;;;;5131667;28;20026;-69
2022/04/22 15:53:38;;;;;;;7.05;3.28;;;;;;;;;;5131485;27;20038;-67
2022/04/22 15:56:34;;;;;;;5.95;3.45;;;;;;;;;;5126810;27;20373;-68
2022/04/22 15:59:00;;;;;;;10.27;4.53;;;;;;;;;;5111306;28;20024;-68
2022/04/22 16:02:55;;;;;;;7.57;3.47;;;;;;;;;;5126650;27;20849;-68
2022/04/22 16:05:21;;;;;;;8.88;5.07;;;;;;;;;;5111389;28;20024;-69
2022/04/22 16:08:53;;;;;;;8.95;4.88;;;;;;;;;;5127075;27;20853;-68
2022/04/22 16:18:58;;;;;;;8.50;4.30;;;;;;;;;;5127689;27;20381;-68
2022/04/22 16:22:36;;;;;;;8.70;4.80;;;;;;;;;;5127458;27;20900;-69
2022/04/22 16:27:22;;;;;;;9.75;4.70;;;;;;;;;;5127156;27;20903;-68
2022/04/22 16:29:49;;;;;;;11.80;5.28;;;;;;;;;;5110656;28;20111;-68
2022/04/22 16:32:15;;;;;;;12.68;5.25;;;;;;;;;;5111121;28;20020;-70
2022/04/22 16:36:19;;;;;;;12.50;7.25;;;;;;;;;;5127312;27;20434;-68
2022/04/22 16:38:45;;;;;;;11.88;6.53;;;;;;;;;;5110787;28;20472;-67
2022/04/22 16:41:31;;;;;;;12.98;6.82;;;;;;;;;;5127505;27;20377;-68
2022/04/22 16:43:57;;;;;;;14.05;6.50;;;;;;;;;;5111098;28;20547;-69
2022/04/22 16:47:48;;;;;;;12.90;8.05;;;;;;;;;;5127481;27;20411;-68
2022/04/22 16:50:15;;;;;;;15.27;7.28;;;;;;;;;;5111258;28;20023;-68
2022/04/22 16:53:45;;;;;;;11.05;6.05;;;;;;;;;;5127381;27;20373;-69
2022/04/22 16:56:22;;;;;;;14.60;6.80;;;;;;;;;;5127653;27;20442;-68
2022/04/22 17:01:02;;;;;;;12.50;7.07;;;;;;;;;;5127970;27;20422;-67
2022/04/22 17:04:19;;;;;;;18.40;11.70;;;;;;;;;;5127649;27;20381;-67
2022/04/22 17:08:18;;;;;;;18.55;11.15;;;;;;;;;;5127345;27;20434;-69
2022/04/22 17:10:44;;;;;;;17.73;9.68;;;;;;;;;;5111199;28;20507;-69
2022/04/22 17:13:10;;;;;;;26.92;14.75;;;;;;;;;;5110644;28;20097;-69
2022/04/22 17:24:50;;;;;;;;;;;;;;;;;;5071174;28;20046;-69
2022/04/22 17:30:16;;;;;;;;;;;;;;;;;;5104100;27;20226;-69
2022/04/22 17:34:18;;;;;;;;;;;;;;;;;;5107285;27;19934;-67
2022/04/22 17:39:00;;;;;;;;;;;;;;;;;;5104033;27;19913;-68
2022/04/22 17:41:26;;;;;;;;;;;;;;;;;;5070781;28;19919;-68
2022/04/22 17:43:53;;;;;;;;;;;;;;;;;;5071082;28;19987;-68
2022/04/22 17:46:55;;;;;;;;;;;;;;;;;;5104116;27;19912;-70
2022/04/22 17:49:22;;;;;;;;;;;;;;;;;;5071144;28;19917;-67
2022/04/22 17:51:48;;;;;;;;;;;;;;;;;;5071035;28;19909;-68
2022/04/22 17:54:16;;;;;;;;;;;;;;;;;;5070633;28;19908;-68
2022/04/22 17:56:44;;;;;;;;;;;;;;;;;;5071094;28;19931;-68
2022/04/22 17:59:10;;;;;;;;;;;;;;;;;;5071138;28;19915;-68
2022/04/22 18:01:36;;;;;;;;;;;;;;;;;;5070447;28;19995;-68
2022/04/22 18:07:21;;;;;;;;;;;;;;;;;;5103890;27;19967;-68
2022/04/22 18:09:49;;;;;;;;;;;;;;;;;;5069483;28;20337;-68
2022/04/22 18:22:08;;;;;;;;;;;;;;;;;;5104283;27;20023;-68
2022/04/22 18:26:26;;;;;;;;;;;;;;;;;;5104152;27;19913;-69
2022/04/22 18:29:28;;;;;;;;;;;;;;;;;;5103715;27;20346;-69
2022/04/22 18:31:56;;;;;;;;;;;;;;;;;;5071447;28;19912;-69
2022/04/22 18:34:22;;;;;;;;;;;;;;;;;;5069920;28;19909;-69
2022/04/22 18:37:56;;;;;;;;;;;;;;;;;;5103326;27;20377;-69
2022/04/22 18:40:22;;;;;;;;;;;;;;;;;;5071780;28;19974;-67
2022/04/22 18:42:48;;;;;;;;;;;;;;;;;;5071061;28;19909;-67
2022/04/22 18:45:16;;;;;;;;;;;;;;;;;;5070624;28;19908;-67
2022/04/22 18:47:42;;;;;;;;;;;;;;;;;;5070947;28;19916;-68
2022/04/22 18:50:08;;;;;;;;;;;;;;;;;;5070834;28;19913;-68
2022/04/22 18:54:38;;;;;;;;;;;;;;;;;;5103909;27;19960;-68
2022/04/22 18:58:25;;;;;;;;;;;;;;;;;;5103466;27;19951;-67
2022/04/22 19:04:42;;;;;;;;;;;;;;;;;;5104133;27;19943;-69
2022/04/22 19:07:08;;;;;;;;;;;;;;;;;;5071225;28;19919;-69
2022/04/22 19:09:34;;;;;;;;;;;;;;;;;;5071194;28;19909;-68
2022/04/22 19:14:00;;;;;;;;;;;;;;;;;;5104490;27;19940;-69
2022/04/22 19:16:26;;;;;;;;;;;;;;;;;;5071146;28;19912;-68
2022/04/22 19:18:53;;;;;;;;;;;;;;;;;;5070702;28;20377;-68
2022/04/22 19:23:48;;;;;;;;;;;;;;;;;;5104328;27;19957;-69
2022/04/22 19:26:14;;;;;;;;;;;;;;;;;;5071079;28;19944;-69
2022/04/22 19:31:07;;;;;;;;;;;;;;;;;;5107384;27;19913;-68
2022/04/22 19:34:24;;;;;;;;;;;;;;;;;;5103589;27;19947;-67
2022/04/22 19:41:23;;;;;;;;;;;;;;;;;;5091300;28;20463;-67
2022/04/22 19:43:57;;;;;;;;;;;;;;;;;;5108053;27;19950;-67
2022/04/22 19:47:38;;;;;;;;;;;;;;;;;;5103585;27;19941;-67
2022/04/22 19:53:12;;;;;;;;;;;;;;;;;;5104153;27;19952;-67
2022/04/22 19:57:56;;;;;;;;;;;;;;;;;;5103933;27;19967;-69
2022/04/22 20:00:22;;;;;;;;;;;;;;;;;;5071223;28;19913;-69